Time;durP1;ratioP1;P1;durP2;ratioP2;P2;SDS_P1;SDS_P2;PMS_P1;PMS_P2;Temp;Humidity;BMP_temperature;BMP_pressure;BME280_temperature;BME280_humidity;BME280_pressure;Samples;Min_cycle;Max_cycle;Signal;HPM_P1;HPM_P2
2022/05/13 00:01:36;;;;;;;3.57;2.80;;;15.60;99.90;;;;;;5094084;28;20490;-72
2022/05/13 00:04:03;;;;;;;3.83;3.10;;;15.60;99.90;;;;;;5094512;28;20485;-72
2022/05/13 00:06:30;;;;;;;3.47;2.70;;;15.50;99.90;;;;;;5096026;28;20453;-72
2022/05/13 00:08:57;;;;;;;4.70;3.03;;;15.50;99.90;;;;;;5099368;28;20488;-72
2022/05/13 00:11:23;;;;;;;7.20;2.97;;;15.50;99.90;;;;;;5098725;28;20467;-72
2022/05/13 00:13:51;;;;;;;3.50;2.90;;;15.50;99.90;;;;;;5098201;28;20453;-72
2022/05/13 00:16:18;;;;;;;8.13;3.30;;;15.40;99.90;;;;;;5097857;28;20461;-72
2022/05/13 00:18:45;;;;;;;3.43;3.13;;;15.40;99.90;;;;;;5098247;28;20457;-72
2022/05/13 00:21:12;;;;;;;6.63;3.00;;;15.30;99.90;;;;;;5097626;28;20925;-72
2022/05/13 00:23:39;;;;;;;4.27;2.87;;;15.30;99.90;;;;;;5097822;28;20538;-72
2022/05/13 00:26:05;;;;;;;3.33;3.03;;;15.30;99.90;;;;;;5097382;28;20522;-72
2022/05/13 00:28:32;;;;;;;3.00;2.80;;;15.20;99.90;;;;;;5097517;28;20464;-72
2022/05/13 00:31:03;;;;;;;3.43;3.13;;;15.20;99.90;;;;;;5097788;28;20484;-72
2022/05/13 00:33:30;;;;;;;3.17;2.87;;;15.20;99.90;;;;;;5097819;28;20488;-71
2022/05/13 00:35:57;;;;;;;4.07;3.60;;;15.20;99.90;;;;;;5097528;28;20457;-70
2022/05/13 00:38:23;;;;;;;4.00;3.17;;;15.10;99.90;;;;;;5097750;28;20463;-73
2022/05/13 00:40:50;;;;;;;3.57;3.27;;;15.10;99.90;;;;;;5097758;28;20757;-73
2022/05/13 00:43:39;;;;;;;3.40;3.10;;;15.10;99.90;;;;;;5097455;28;20484;-72
2022/05/13 00:46:07;;;;;;;8.23;3.50;;;15.00;99.90;;;;;;5097670;28;20549;-73
2022/05/13 00:48:34;;;;;;;4.90;3.23;;;15.00;99.90;;;;;;5097531;28;20460;-73
2022/05/13 00:51:00;;;;;;;3.77;3.40;;;15.00;99.90;;;;;;5097476;28;20454;-73
2022/05/13 00:53:28;;;;;;;5.30;3.20;;;15.00;99.90;;;;;;5097393;28;20449;-72
2022/05/13 00:55:55;;;;;;;4.80;3.70;;;15.00;99.90;;;;;;5097215;28;20485;-72
2022/05/13 00:58:23;;;;;;;6.37;3.83;;;14.90;99.90;;;;;;5097275;28;20449;-72
2022/05/13 01:00:50;;;;;;;6.40;4.67;;;14.90;99.90;;;;;;5097093;28;20834;-72
2022/05/13 01:03:18;;;;;;;5.27;4.77;;;14.90;99.90;;;;;;5096815;28;20815;-72
2022/05/13 01:05:50;;;;;;;6.03;5.43;;;14.90;99.90;;;;;;5096803;28;20454;-72
2022/05/13 01:08:18;;;;;;;8.40;5.83;;;14.90;99.90;;;;;;5096597;28;20486;-72
2022/05/13 01:10:46;;;;;;;5.93;5.27;;;14.80;99.90;;;;;;5096897;28;20457;-72
2022/05/13 01:13:20;;;;;;;5.37;4.90;;;14.80;99.90;;;;;;5096760;28;20791;-73
2022/05/13 01:15:49;;;;;;;7.47;4.87;;;14.80;99.90;;;;;;5096809;28;20452;-72
2022/05/13 01:18:26;;;;;;;6.27;4.30;;;14.80;99.90;;;;;;5095356;28;20450;-72
2022/05/13 01:20:53;;;;;;;6.00;4.30;;;14.80;99.90;;;;;;5096900;28;20460;-72
2022/05/13 01:23:23;;;;;;;4.77;4.20;;;14.80;99.90;;;;;;5096557;28;20477;-72
2022/05/13 01:25:53;;;;;;;6.03;4.10;;;14.80;99.90;;;;;;5096714;28;20791;-72
2022/05/13 01:28:23;;;;;;;5.13;4.27;;;14.70;99.90;;;;;;5096363;28;20752;-72
2022/05/13 01:30:52;;;;;;;5.70;5.20;;;14.70;99.90;;;;;;5096668;28;20449;-72
2022/05/13 01:33:20;;;;;;;4.53;4.23;;;14.70;99.90;;;;;;5096365;28;20453;-72
2022/05/13 01:35:50;;;;;;;5.07;4.60;;;14.60;99.90;;;;;;5096561;28;20461;-72
2022/05/13 01:38:19;;;;;;;4.60;4.20;;;14.60;99.90;;;;;;5096525;28;20796;-72
2022/05/13 01:40:47;;;;;;;4.97;4.50;;;14.60;99.90;;;;;;5096454;28;20778;-72
2022/05/13 01:43:14;;;;;;;4.97;4.10;;;14.60;99.90;;;;;;5096240;28;20464;-72
2022/05/13 01:45:41;;;;;;;4.57;4.20;;;14.50;99.90;;;;;;5096204;28;20820;-72
2022/05/13 01:48:09;;;;;;;4.37;3.97;;;14.50;99.90;;;;;;5096305;28;20461;-73
2022/05/13 01:50:36;;;;;;;5.13;4.73;;;14.50;99.90;;;;;;5095827;28;20905;-72
2022/05/13 01:53:03;;;;;;;4.63;4.20;;;14.40;99.90;;;;;;5096050;28;20453;-72
2022/05/13 01:55:30;;;;;;;4.27;3.87;;;14.40;99.90;;;;;;5096394;28;20510;-72
2022/05/13 01:57:58;;;;;;;4.90;4.03;;;14.30;99.90;;;;;;5096198;28;20465;-72
2022/05/13 02:00:26;;;;;;;7.00;4.37;;;14.30;99.90;;;;;;5096299;28;20468;-72
2022/05/13 02:05:37;;;;;;;6.17;4.83;;;14.20;99.90;;;;;;5095573;28;20538;-72
2022/05/13 02:08:04;;;;;;;4.83;4.40;;;14.20;99.90;;;;;;5095623;28;20503;-72
2022/05/13 02:10:31;;;;;;;5.63;5.10;;;14.10;99.90;;;;;;5095849;28;20534;-72
2022/05/13 02:12:59;;;;;;;5.37;4.87;;;14.10;99.90;;;;;;5095972;28;20468;-72
2022/05/13 02:15:26;;;;;;;5.10;4.70;;;14.10;99.90;;;;;;5095883;28;20453;-72
2022/05/13 02:17:53;;;;;;;6.10;5.43;;;14.00;99.90;;;;;;5095541;28;20464;-72
2022/05/13 02:20:20;;;;;;;6.00;5.50;;;14.00;99.90;;;;;;5095373;28;20465;-72
2022/05/13 02:22:46;;;;;;;6.30;5.23;;;14.00;99.90;;;;;;5095569;28;20457;-72
2022/05/13 02:25:13;;;;;;;5.07;4.57;;;13.90;99.90;;;;;;5095134;28;20970;-73
2022/05/13 02:27:40;;;;;;;5.23;4.73;;;13.90;99.90;;;;;;5095369;28;20457;-71
2022/05/13 02:30:10;;;;;;;5.03;4.53;;;13.80;99.90;;;;;;5095209;28;20464;-72
2022/05/13 02:32:36;;;;;;;6.87;4.30;;;13.80;99.90;;;;;;5095305;28;20556;-73
2022/05/13 02:35:04;;;;;;;5.80;5.00;;;13.70;99.90;;;;;;5095299;28;20464;-72
2022/05/13 02:37:31;;;;;;;5.47;4.97;;;13.70;99.90;;;;;;5095526;28;20457;-72
2022/05/13 02:39:58;;;;;;;7.23;5.23;;;13.70;99.90;;;;;;5095203;28;20454;-72
2022/05/13 02:42:24;;;;;;;5.43;5.03;;;13.70;99.90;;;;;;5095410;28;20484;-72
2022/05/13 02:44:51;;;;;;;6.13;5.57;;;13.60;99.90;;;;;;5095148;28;20534;-72
2022/05/13 02:47:19;;;;;;;6.00;5.50;;;13.60;99.90;;;;;;5095337;28;20928;-73
2022/05/13 02:49:46;;;;;;;7.20;5.47;;;13.60;99.90;;;;;;5096626;28;20458;-72
2022/05/13 02:52:13;;;;;;;5.43;4.90;;;13.60;99.90;;;;;;5095405;28;20461;-72
2022/05/13 02:54:40;;;;;;;5.90;4.90;;;13.60;99.90;;;;;;5094905;28;20479;-72
2022/05/13 02:57:07;;;;;;;5.33;4.83;;;13.50;99.90;;;;;;5095077;28;20464;-72
2022/05/13 02:59:33;;;;;;;5.63;5.13;;;13.50;99.90;;;;;;5094582;28;20449;-72
2022/05/13 03:02:00;;;;;;;7.50;4.93;;;13.40;99.90;;;;;;5094437;28;20458;-72
2022/05/13 03:04:28;;;;;;;6.30;5.53;;;13.40;99.90;;;;;;5094706;28;20568;-72
2022/05/13 03:06:55;;;;;;;5.63;5.13;;;13.40;99.90;;;;;;5094552;28;20500;-72
2022/05/13 03:09:21;;;;;;;6.03;5.53;;;13.40;99.90;;;;;;5094944;28;20454;-72
2022/05/13 03:11:48;;;;;;;8.93;6.30;;;13.40;99.90;;;;;;5094803;28;20478;-72
2022/05/13 03:14:15;;;;;;;9.30;5.70;;;13.40;99.90;;;;;;5094909;28;20453;-72
2022/05/13 03:16:42;;;;;;;6.27;5.67;;;13.30;99.90;;;;;;5094596;28;20464;-72
2022/05/13 03:19:08;;;;;;;7.17;6.20;;;13.30;99.90;;;;;;5094890;28;20464;-72
2022/05/13 03:21:36;;;;;;;6.77;5.73;;;13.30;99.90;;;;;;5094586;28;20454;-72
2022/05/13 03:24:04;;;;;;;6.20;5.60;;;13.30;99.90;;;;;;5094199;28;20470;-72
2022/05/13 03:26:31;;;;;;;6.63;6.13;;;13.30;99.90;;;;;;5094851;28;20472;-72
2022/05/13 03:28:58;;;;;;;6.40;5.63;;;13.30;99.90;;;;;;5094672;28;20461;-72
2022/05/13 03:31:24;;;;;;;6.63;5.97;;;13.30;99.90;;;;;;5094445;28;20457;-72
2022/05/13 03:33:51;;;;;;;8.33;5.40;;;13.30;99.90;;;;;;5094384;28;20820;-72
2022/05/13 03:36:19;;;;;;;7.33;6.20;;;13.30;99.90;;;;;;5095503;28;20472;-72
2022/05/13 03:38:47;;;;;;;6.40;5.80;;;13.30;99.90;;;;;;5096533;28;20833;-73
2022/05/13 03:41:14;;;;;;;7.20;5.57;;;13.30;99.90;;;;;;5101069;28;20457;-72
2022/05/13 03:43:40;;;;;;;7.10;6.50;;;13.30;99.90;;;;;;5100473;28;20461;-72
2022/05/13 03:46:07;;;;;;;5.57;4.80;;;13.30;99.90;;;;;;5099816;28;20473;-72
2022/05/13 03:48:34;;;;;;;6.53;6.00;;;13.30;99.90;;;;;;5099438;28;20476;-72
2022/05/13 03:51:01;;;;;;;6.20;5.70;;;13.30;99.90;;;;;;5099083;28;20514;-72
2022/05/13 03:53:28;;;;;;;7.57;6.50;;;13.30;99.90;;;;;;5098425;28;20518;-72
2022/05/13 03:55:56;;;;;;;5.67;5.20;;;13.30;99.90;;;;;;5098540;28;20457;-72
2022/05/13 03:58:22;;;;;;;6.67;5.97;;;13.30;99.90;;;;;;5098568;28;20457;-72
2022/05/13 04:00:51;;;;;;;6.70;6.10;;;13.30;99.90;;;;;;5098023;28;20932;-72
2022/05/13 04:03:19;;;;;;;6.23;5.63;;;13.40;99.90;;;;;;5098294;28;20464;-72
2022/05/13 04:11:15;;;;;;;6.57;6.03;;;13.30;99.90;;;;;;5098234;28;20424;-73
2022/05/13 04:16:26;;;;;;;6.33;5.73;;;13.40;99.90;;;;;;5098025;28;20428;-72
2022/05/13 04:18:53;;;;;;;7.00;6.30;;;13.40;99.90;;;;;;5097804;28;20468;-72
2022/05/13 04:21:21;;;;;;;6.63;5.43;;;13.40;99.90;;;;;;5098186;28;20453;-72
2022/05/13 04:23:50;;;;;;;7.27;5.63;;;13.40;99.90;;;;;;5098362;28;20461;-72
2022/05/13 04:26:19;;;;;;;7.63;6.30;;;13.40;99.90;;;;;;5098168;28;20549;-72
2022/05/13 04:28:49;;;;;;;7.33;6.63;;;13.40;99.90;;;;;;5098628;28;20457;-72
2022/05/13 04:31:18;;;;;;;8.13;6.17;;;13.40;99.90;;;;;;5097544;28;20453;-72
2022/05/13 04:33:45;;;;;;;9.73;6.30;;;13.50;99.90;;;;;;5098023;28;20897;-72
2022/05/13 04:36:12;;;;;;;7.90;6.23;;;13.50;99.90;;;;;;5098024;28;20519;-72
2022/05/13 04:38:39;;;;;;;6.73;6.23;;;13.50;99.90;;;;;;5097360;28;20929;-72
2022/05/13 04:43:54;;;;;;;6.93;6.30;;;13.60;99.90;;;;;;5097217;28;20432;-72
2022/05/13 04:46:20;;;;;;;7.60;5.80;;;13.70;99.90;;;;;;5097235;28;20513;-72
2022/05/13 04:48:48;;;;;;;7.43;6.20;;;13.70;99.90;;;;;;5097204;28;20937;-72
2022/05/13 04:51:17;;;;;;;7.17;6.50;;;13.70;99.90;;;;;;5096907;28;20461;-72
2022/05/13 04:53:45;;;;;;;6.33;5.83;;;13.80;99.90;;;;;;5097330;28;20453;-72
2022/05/13 04:56:11;;;;;;;6.53;5.90;;;13.80;99.90;;;;;;5097409;28;20452;-72
2022/05/13 04:58:39;;;;;;;8.83;7.33;;;13.90;99.90;;;;;;5097505;28;20453;-73
2022/05/13 05:01:08;;;;;;;7.33;5.43;;;13.90;99.90;;;;;;5097244;28;20561;-74
2022/05/13 05:03:36;;;;;;;9.23;6.67;;;13.90;99.90;;;;;;5097198;28;20480;-73
2022/05/13 05:06:03;;;;;;;6.97;6.37;;;14.00;99.90;;;;;;5097047;28;20841;-73
2022/05/13 05:08:31;;;;;;;6.23;5.63;;;14.00;99.90;;;;;;5096701;28;20493;-73
2022/05/13 05:10:58;;;;;;;7.67;5.70;;;14.10;99.90;;;;;;5096934;28;20534;-73
2022/05/13 05:13:27;;;;;;;10.87;6.57;;;14.10;99.90;;;;;;5096537;28;20902;-73
2022/05/13 05:15:54;;;;;;;6.10;5.50;;;14.10;99.90;;;;;;5096964;28;20461;-72
2022/05/13 05:18:22;;;;;;;7.63;5.23;;;14.20;99.90;;;;;;5096696;28;20518;-73
2022/05/13 05:20:50;;;;;;;6.27;5.27;;;14.30;99.90;;;;;;5096951;28;20897;-73
2022/05/13 05:23:19;;;;;;;6.70;5.37;;;14.30;99.90;;;;;;5096509;28;20472;-73
2022/05/13 05:25:46;;;;;;;7.30;5.50;;;14.40;99.90;;;;;;5096357;28;20478;-73
2022/05/13 05:28:14;;;;;;;8.70;5.37;;;14.40;99.90;;;;;;5096269;28;20552;-73
2022/05/13 05:30:41;;;;;;;9.33;6.20;;;14.50;99.90;;;;;;5096622;28;20782;-73
2022/05/13 05:33:09;;;;;;;5.90;5.30;;;14.60;99.90;;;;;;5097082;28;20456;-72
2022/05/13 05:35:37;;;;;;;6.67;5.10;;;14.60;99.90;;;;;;5096503;28;20495;-72
2022/05/13 05:38:04;;;;;;;6.87;5.50;;;14.70;99.90;;;;;;5096067;28;20462;-72
2022/05/13 05:40:32;;;;;;;5.60;4.97;;;14.80;99.90;;;;;;5096368;28;20468;-73
2022/05/13 05:43:04;;;;;;;6.13;4.70;;;14.90;99.90;;;;;;5096629;28;20449;-73
2022/05/13 05:45:30;;;;;;;6.13;4.77;;;15.00;99.90;;;;;;5096227;28;20466;-73
2022/05/13 05:47:57;;;;;;;5.27;4.60;;;15.00;99.90;;;;;;5096157;28;20468;-72
2022/05/13 05:50:24;;;;;;;5.80;5.30;;;15.10;99.90;;;;;;5096239;28;20777;-72
2022/05/13 05:52:52;;;;;;;6.07;5.17;;;15.10;99.90;;;;;;5095992;28;20880;-72
2022/05/13 05:58:05;;;;;;;5.00;4.53;;;15.30;99.90;;;;;;5095514;28;20429;-72
2022/05/13 06:00:35;;;;;;;6.27;4.70;;;15.30;99.90;;;;;;5095678;28;20474;-72
2022/05/13 06:03:02;;;;;;;5.40;4.70;;;15.40;99.90;;;;;;5095719;28;20463;-73
2022/05/13 06:05:29;;;;;;;6.93;5.60;;;15.60;99.90;;;;;;5095419;28;20503;-72
2022/05/13 06:07:59;;;;;;;6.17;5.07;;;15.70;99.90;;;;;;5095812;28;20524;-73
2022/05/13 06:10:27;;;;;;;15.73;5.07;;;15.80;99.90;;;;;;5096666;28;20840;-73
2022/05/13 06:12:54;;;;;;;9.10;4.70;;;15.80;99.90;;;;;;5095789;28;20461;-72
2022/05/13 06:15:22;;;;;;;8.13;4.80;;;16.00;99.90;;;;;;5095779;28;20461;-72
2022/05/13 06:17:50;;;;;;;7.07;4.73;;;16.00;99.90;;;;;;5095597;28;20470;-73
2022/05/13 06:20:18;;;;;;;8.07;4.73;;;16.20;99.90;;;;;;5095360;28;20590;-72
2022/05/13 06:22:45;;;;;;;7.27;5.60;;;16.30;99.90;;;;;;5095229;28;20918;-72
2022/05/13 06:25:15;;;;;;;13.90;5.03;;;16.40;99.90;;;;;;5094775;28;20477;-72
2022/05/13 06:27:44;;;;;;;8.23;5.43;;;16.40;99.90;;;;;;5094900;28;20457;-72
2022/05/13 06:30:15;;;;;;;6.90;5.10;;;16.50;99.90;;;;;;5094920;28;20453;-73
2022/05/13 06:32:43;;;;;;;9.40;5.23;;;16.60;99.90;;;;;;5095275;28;20460;-73
2022/05/13 06:35:10;;;;;;;9.27;5.50;;;16.70;99.90;;;;;;5095342;28;20457;-73
2022/05/13 06:37:37;;;;;;;10.37;5.77;;;16.70;99.90;;;;;;5095119;28;20468;-73
2022/05/13 06:40:05;;;;;;;16.00;6.50;;;16.70;99.90;;;;;;5094929;28;20453;-73
2022/05/13 06:42:33;;;;;;;6.17;5.20;;;16.80;99.90;;;;;;5095839;28;20820;-73
2022/05/13 06:44:59;;;;;;;13.70;6.37;;;16.80;99.90;;;;;;5095024;28;20453;-73
2022/05/13 06:47:26;;;;;;;8.37;6.00;;;16.80;99.90;;;;;;5094966;28;20910;-73
2022/05/13 06:49:53;;;;;;;7.23;6.03;;;16.90;99.90;;;;;;5094972;28;20472;-72
2022/05/13 06:52:20;;;;;;;7.50;6.50;;;16.90;99.90;;;;;;5095178;28;20526;-73
2022/05/13 06:54:46;;;;;;;14.20;7.17;;;17.00;99.90;;;;;;5094475;28;20457;-72
2022/05/13 06:57:13;;;;;;;7.37;6.20;;;17.10;99.90;;;;;;5094557;28;20473;-74
2022/05/13 06:59:41;;;;;;;7.57;6.17;;;17.10;99.90;;;;;;5094572;28;20479;-74
2022/05/13 07:02:08;;;;;;;14.80;7.27;;;17.20;99.90;;;;;;5094960;28;20522;-74
2022/05/13 07:04:35;;;;;;;7.67;6.57;;;17.20;99.90;;;;;;5094624;28;20454;-74
2022/05/13 07:07:01;;;;;;;7.27;6.57;;;17.30;99.90;;;;;;5094354;28;20481;-72
2022/05/13 07:09:28;;;;;;;10.80;6.50;;;17.20;99.90;;;;;;5095047;28;20453;-73
2022/05/13 07:11:55;;;;;;;8.10;6.57;;;17.20;99.90;;;;;;5094698;28;20469;-73
2022/05/13 07:14:22;;;;;;;12.83;6.50;;;17.30;99.90;;;;;;5094775;28;20510;-72
2022/05/13 07:16:50;;;;;;;8.20;6.40;;;17.30;99.90;;;;;;5094253;28;20483;-73
2022/05/13 07:19:17;;;;;;;9.93;6.10;;;17.30;99.90;;;;;;5094748;28;20461;-73
2022/05/13 07:21:44;;;;;;;9.83;6.43;;;17.50;99.90;;;;;;5095744;28;20461;-74
2022/05/13 07:24:10;;;;;;;8.07;7.07;;;17.60;99.90;;;;;;5095011;28;20464;-73
2022/05/13 07:26:37;;;;;;;10.73;7.17;;;17.70;99.90;;;;;;5094994;28;20576;-73
2022/05/13 07:29:05;;;;;;;7.27;6.57;;;17.80;99.90;;;;;;5094554;28;20467;-74
2022/05/13 07:31:31;;;;;;;7.30;6.60;;;17.80;99.90;;;;;;5094830;28;20518;-74
2022/05/13 07:34:00;;;;;;;10.53;6.90;;;17.80;99.90;;;;;;5096203;28;20902;-73
2022/05/13 07:36:26;;;;;;;8.57;6.90;;;17.80;99.90;;;;;;5097633;28;20511;-73
2022/05/13 07:41:37;;;;;;;7.63;6.90;;;17.80;99.90;;;;;;5095709;28;20970;-73
2022/05/13 07:44:06;;;;;;;9.40;7.53;;;17.80;99.90;;;;;;5094998;28;20790;-73
2022/05/13 07:46:32;;;;;;;9.90;6.90;;;17.80;99.90;;;;;;5094744;28;20520;-72
2022/05/13 07:49:00;;;;;;;7.37;6.67;;;17.80;99.90;;;;;;5094770;28;20453;-72
2022/05/13 07:51:27;;;;;;;8.53;7.73;;;17.90;99.90;;;;;;5094067;28;20557;-73
2022/05/13 07:53:54;;;;;;;9.57;7.30;;;17.90;99.90;;;;;;5095564;28;20468;-72
2022/05/13 07:56:21;;;;;;;13.03;9.03;;;17.90;99.90;;;;;;5094180;28;20464;-73
2022/05/13 07:58:48;;;;;;;10.20;8.23;;;17.80;99.90;;;;;;5094233;28;20457;-73
2022/05/13 08:01:15;;;;;;;8.03;7.07;;;17.80;99.90;;;;;;5094273;28;20561;-73
2022/05/13 08:03:43;;;;;;;12.53;7.30;;;17.70;99.90;;;;;;5094061;28;20925;-73
2022/05/13 08:06:13;;;;;;;10.30;7.27;;;17.70;99.90;;;;;;5093610;28;20576;-73
2022/05/13 08:08:42;;;;;;;8.07;7.30;;;17.70;99.90;;;;;;5093878;28;20832;-73
2022/05/13 08:11:12;;;;;;;8.57;7.67;;;17.60;99.90;;;;;;5094383;28;20464;-72
2022/05/13 08:13:40;;;;;;;9.73;8.30;;;17.60;99.90;;;;;;5094166;28;20526;-73
2022/05/13 08:16:10;;;;;;;8.63;7.67;;;17.50;99.90;;;;;;5094133;28;20763;-73
2022/05/13 08:18:37;;;;;;;13.53;8.00;;;17.40;99.90;;;;;;5093987;28;20483;-73
2022/05/13 08:21:04;;;;;;;11.67;8.97;;;17.40;99.90;;;;;;5094185;28;20538;-73
2022/05/13 08:23:32;;;;;;;12.07;8.10;;;17.20;99.90;;;;;;5094179;28;20464;-73
2022/05/13 08:25:59;;;;;;;11.50;8.53;;;17.00;99.90;;;;;;5093651;28;20785;-73
2022/05/13 08:28:27;;;;;;;8.83;7.83;;;17.00;99.90;;;;;;5097236;28;20452;-73
2022/05/13 08:30:53;;;;;;;9.80;8.67;;;16.80;99.90;;;;;;5097161;28;20472;-73
2022/05/13 08:33:20;;;;;;;9.40;8.50;;;16.70;99.90;;;;;;5097771;28;20461;-73
2022/05/13 08:35:51;;;;;;;14.10;9.80;;;16.60;99.90;;;;;;5098026;28;20457;-73
2022/05/13 08:38:21;;;;;;;12.87;9.00;;;16.60;99.90;;;;;;5097332;28;20441;-73
2022/05/13 08:41:09;;;;;;;12.70;9.83;;;16.60;99.90;;;;;;5097821;28;20445;-73
2022/05/13 08:43:40;;;;;;;13.80;9.50;;;16.50;99.90;;;;;;5097456;28;20438;-73
2022/05/13 08:46:14;;;;;;;10.17;8.63;;;16.50;99.90;;;;;;5097526;28;20465;-73
2022/05/13 08:48:48;;;;;;;12.93;9.50;;;16.40;99.90;;;;;;5097630;28;20449;-73
2022/05/13 08:51:18;;;;;;;13.17;10.83;;;16.40;99.90;;;;;;5097271;28;20847;-73
2022/05/13 08:53:53;;;;;;;15.60;8.70;;;16.40;99.90;;;;;;5097406;28;20438;-72
2022/05/13 08:56:26;;;;;;;11.10;9.10;;;16.40;99.90;;;;;;5097500;28;20437;-72
2022/05/13 08:58:59;;;;;;;13.77;9.57;;;16.50;99.90;;;;;;5097182;28;20441;-72
2022/05/13 09:01:32;;;;;;;16.03;9.67;;;16.60;99.90;;;;;;5097355;28;20578;-73
2022/05/13 09:04:02;;;;;;;11.37;8.37;;;16.70;99.90;;;;;;5096852;28;20450;-72
2022/05/13 09:06:37;;;;;;;11.57;8.90;;;16.90;99.90;;;;;;5097163;28;20572;-74
2022/05/13 09:09:05;;;;;;;11.70;8.50;;;17.00;99.90;;;;;;5097026;28;20764;-74
2022/05/13 09:11:39;;;;;;;9.53;7.50;;;17.20;99.90;;;;;;5096933;28;20460;-73
2022/05/13 09:14:23;;;;;;;10.83;8.07;;;17.40;99.90;;;;;;5097101;28;20448;-72
2022/05/13 09:16:55;;;;;;;7.23;6.53;;;17.50;99.90;;;;;;5097129;28;20433;-73
2022/05/13 09:19:35;;;;;;;10.43;6.53;;;17.70;99.90;;;;;;5097261;28;20444;-72
2022/05/13 09:22:04;;;;;;;10.00;6.37;;;18.00;99.90;;;;;;5096591;28;20516;-73
2022/05/13 09:24:32;;;;;;;10.70;3.83;;;18.10;99.90;;;;;;5096681;28;20453;-72
2022/05/13 09:27:00;;;;;;;5.20;3.30;;;18.10;99.90;;;;;;5096664;28;20990;-71
2022/05/13 09:29:39;;;;;;;4.83;3.33;;;18.00;99.90;;;;;;5096501;28;20462;-70
2022/05/13 09:32:12;;;;;;;6.17;3.87;;;17.90;99.90;;;;;;5096403;28;20521;-71
2022/05/13 09:34:47;;;;;;;5.83;3.47;;;17.80;99.90;;;;;;5096866;28;20448;-71
2022/05/13 09:37:19;;;;;;;4.67;3.70;;;17.80;99.90;;;;;;5096667;28;20866;-71
2022/05/13 09:39:48;;;;;;;5.27;3.67;;;17.80;99.90;;;;;;5095501;28;20448;-72
2022/05/13 09:42:26;;;;;;;7.43;4.10;;;17.80;99.90;;;;;;5096257;28;20457;-71
2022/05/13 09:45:09;;;;;;;5.60;3.90;;;17.80;99.90;;;;;;5096219;28;20531;-72
2022/05/13 09:47:36;;;;;;;5.80;3.40;;;17.80;99.90;;;;;;5095789;28;20945;-72
2022/05/13 09:50:03;;;;;;;5.10;3.97;;;17.70;99.90;;;;;;5096524;28;20564;-71
2022/05/13 09:52:34;;;;;;;6.70;3.73;;;17.70;99.90;;;;;;5096194;28;20955;-71
2022/05/13 09:55:14;;;;;;;6.43;3.30;;;17.80;99.90;;;;;;5096026;28;20453;-71
2022/05/13 09:57:43;;;;;;;6.80;4.03;;;18.00;99.90;;;;;;5096392;28;20448;-70
2022/05/13 10:00:17;;;;;;;5.87;3.23;;;18.20;99.90;;;;;;5096221;28;20453;-71
2022/05/13 10:02:46;;;;;;;12.10;3.60;;;18.10;99.90;;;;;;5097178;28;20469;-73
2022/05/13 10:05:17;;;;;;;4.63;3.67;;;18.10;99.90;;;;;;5096459;28;20463;-71
2022/05/13 10:07:55;;;;;;;5.20;3.80;;;18.10;99.90;;;;;;5095738;28;20485;-70
2022/05/13 10:15:59;;;;;;;4.77;3.97;;;18.30;99.90;;;;;;5095651;28;20437;-74
2022/05/13 10:18:29;;;;;;;4.57;3.40;;;18.30;99.90;;;;;;5095933;28;20790;-71
2022/05/13 10:20:59;;;;;;;5.70;3.73;;;18.40;99.90;;;;;;5095718;28;20835;-72
2022/05/13 10:23:29;;;;;;;5.23;3.70;;;18.60;99.90;;;;;;5095413;28;20783;-72
2022/05/13 10:25:59;;;;;;;3.63;3.20;;;18.70;99.90;;;;;;5095381;28;20742;-71
2022/05/13 10:28:33;;;;;;;4.80;3.93;;;18.70;99.90;;;;;;5095592;28;20453;-72
2022/05/13 10:31:07;;;;;;;7.57;3.20;;;18.50;99.90;;;;;;5096077;28;20453;-71
2022/05/13 10:33:40;;;;;;;5.13;3.10;;;18.30;99.90;;;;;;5095737;28;20659;-71
2022/05/13 10:36:11;;;;;;;6.90;3.37;;;18.00;99.90;;;;;;5095978;28;20452;-71
2022/05/13 10:38:43;;;;;;;7.10;4.03;;;17.90;99.90;;;;;;5095319;28;20442;-72
2022/05/13 10:41:35;;;;;;;5.70;3.50;;;17.80;99.90;;;;;;5095077;28;20437;-71
2022/05/13 10:44:07;;;;;;;6.17;3.40;;;17.70;99.90;;;;;;5095375;28;20490;-71
2022/05/13 10:46:44;;;;;;;6.50;3.70;;;17.60;99.90;;;;;;5094582;28;20956;-72
2022/05/13 10:49:11;;;;;;;4.50;3.47;;;17.60;99.90;;;;;;5094763;28;20437;-71
2022/05/13 10:51:44;;;;;;;5.50;3.27;;;17.60;99.90;;;;;;5094845;28;20526;-72
2022/05/13 10:54:26;;;;;;;3.63;2.77;;;17.80;99.90;;;;;;5094920;28;20468;-72
2022/05/13 10:56:59;;;;;;;3.37;3.07;;;17.90;99.90;;;;;;5094709;28;20521;-72
2022/05/13 10:59:44;;;;;;;5.83;3.03;;;18.10;99.90;;;;;;5094824;28;20438;-72
2022/05/13 11:02:31;;;;;;;3.17;2.67;;;18.30;99.90;;;;;;5094694;28;20445;-72
2022/05/13 11:05:06;;;;;;;6.33;3.10;;;18.50;99.90;;;;;;5094826;28;20446;-71
2022/05/13 11:07:40;;;;;;;6.47;3.03;;;18.80;99.90;;;;;;5094289;28;20491;-70
2022/05/13 11:10:18;;;;;;;4.30;3.13;;;18.90;99.90;;;;;;5094485;28;20448;-71
2022/05/13 11:12:52;;;;;;;7.90;2.70;;;19.00;99.90;;;;;;5094488;28;20507;-71
2022/05/13 11:15:32;;;;;;;3.70;2.60;;;19.10;99.90;;;;;;5094906;28;20441;-73
2022/05/13 11:18:08;;;;;;;3.50;2.40;;;19.40;99.90;;;;;;5094222;28;20521;-71
2022/05/13 11:20:47;;;;;;;4.70;2.30;;;19.50;99.90;;;;;;5094976;28;20437;-71
2022/05/13 11:23:26;;;;;;;6.20;2.80;;;19.70;99.90;;;;;;5094752;28;20437;-72
2022/05/13 11:26:08;;;;;;;5.60;2.67;;;19.80;99.90;;;;;;5094048;28;20513;-70
2022/05/13 11:28:50;;;;;;;4.77;2.70;;;20.30;99.90;;;;;;5094455;28;20442;-71
2022/05/13 11:31:41;;;;;;;3.50;2.50;;;20.40;99.90;;;;;;5094361;28;20536;-71
2022/05/13 11:34:19;;;;;;;3.40;2.60;;;20.00;98.90;;;;;;5094292;28;20452;-71
2022/05/13 11:36:53;;;;;;;4.67;2.80;;;19.50;98.90;;;;;;5094337;28;20465;-71
2022/05/13 11:39:54;;;;;;;5.63;3.20;;;19.20;98.40;;;;;;5094016;28;20437;-70
2022/05/13 11:45:36;;;;;;;3.57;2.67;;;18.90;97.90;;;;;;5093795;28;20576;-71
2022/05/13 11:48:20;;;;;;;3.47;2.93;;;19.10;97.20;;;;;;5094136;28;20461;-71
2022/05/13 11:50:47;;;;;;;5.77;2.77;;;19.30;96.30;;;;;;5094594;28;20911;-71
2022/05/13 11:53:44;;;;;;;12.43;3.00;;;19.40;95.30;;;;;;5094122;28;20472;-71
2022/05/13 11:56:20;;;;;;;6.67;3.10;;;19.10;94.60;;;;;;5094351;28;20464;-71
2022/05/13 11:58:51;;;;;;;4.93;3.13;;;19.00;94.70;;;;;;5094062;28;20544;-70
2022/05/13 12:01:51;;;;;;;3.10;2.80;;;18.90;96.10;;;;;;5094041;28;20878;-71
2022/05/13 12:04:33;;;;;;;7.50;3.00;;;18.70;97.20;;;;;;5099377;28;20510;-72
2022/05/13 12:07:15;;;;;;;4.17;2.23;;;18.60;98.00;;;;;;5099147;28;20477;-72
2022/05/13 12:09:47;;;;;;;5.30;2.50;;;18.50;98.60;;;;;;5099057;28;20442;-71
2022/05/13 12:12:22;;;;;;;5.23;2.30;;;18.60;99.00;;;;;;5098329;28;20540;-72
2022/05/13 12:14:56;;;;;;;4.63;2.60;;;18.60;99.50;;;;;;5098416;28;20436;-71
2022/05/13 12:17:36;;;;;;;6.97;3.20;;;18.70;99.70;;;;;;5098000;28;20438;-71
2022/05/13 12:20:12;;;;;;;9.33;2.90;;;18.80;98.50;;;;;;5098124;28;20445;-71
2022/05/13 12:22:48;;;;;;;6.17;2.60;;;18.90;97.50;;;;;;5097890;28;20457;-72
2022/05/13 12:25:43;;;;;;;5.20;3.07;;;19.20;96.90;;;;;;5098158;28;20445;-69
2022/05/13 12:28:24;;;;;;;4.70;2.50;;;19.40;97.50;;;;;;5097940;28;20476;-72
2022/05/13 12:30:53;;;;;;;5.70;2.53;;;19.50;96.30;;;;;;5098532;28;20761;-71
2022/05/13 12:33:38;;;;;;;4.07;2.30;;;19.30;96.50;;;;;;5097881;28;20791;-69
2022/05/13 12:39:06;;;;;;;7.83;2.50;;;18.80;97.30;;;;;;5097725;28;20559;-72
2022/05/13 12:41:46;;;;;;;5.40;2.17;;;18.70;97.90;;;;;;5097647;28;20453;-71
2022/05/13 12:44:22;;;;;;;7.23;2.57;;;18.70;97.40;;;;;;5097604;28;20535;-71
2022/05/13 12:46:50;;;;;;;5.30;2.20;;;18.80;98.30;;;;;;5097440;28;20445;-72
2022/05/13 12:49:21;;;;;;;4.10;2.10;;;18.80;97.50;;;;;;5097737;28;20472;-73
2022/05/13 12:52:01;;;;;;;4.70;2.53;;;18.80;97.30;;;;;;5097550;28;20445;-72
2022/05/13 12:54:33;;;;;;;5.50;2.03;;;18.80;97.40;;;;;;5097538;28;20444;-71
2022/05/13 12:57:10;;;;;;;3.20;1.90;;;18.70;95.30;;;;;;5097289;28;20502;-72
2022/05/13 12:59:43;;;;;;;3.80;2.53;;;18.60;95.30;;;;;;5097339;28;20450;-71
2022/05/13 13:02:11;;;;;;;3.80;2.53;;;18.50;95.40;;;;;;5097043;28;20518;-71
2022/05/13 13:04:51;;;;;;;4.60;2.37;;;18.40;95.70;;;;;;5096917;28;20469;-71
2022/05/13 13:07:20;;;;;;;6.87;2.40;;;18.30;96.30;;;;;;5096673;28;20489;-71
2022/05/13 13:09:51;;;;;;;3.50;2.30;;;18.10;96.00;;;;;;5096857;28;20465;-70
2022/05/13 13:12:24;;;;;;;4.37;2.63;;;18.00;96.60;;;;;;5096728;28;20505;-71
2022/05/13 13:14:57;;;;;;;6.83;2.37;;;17.80;97.10;;;;;;5095208;28;20445;-72
2022/05/13 13:17:34;;;;;;;5.80;3.00;;;17.60;98.20;;;;;;5096816;28;20438;-71
2022/05/13 13:20:04;;;;;;;6.50;2.70;;;17.50;99.20;;;;;;5096570;28;20456;-71
2022/05/13 13:22:34;;;;;;;5.30;2.53;;;17.40;99.90;;;;;;5096785;28;20548;-72
2022/05/13 13:25:07;;;;;;;4.53;2.30;;;17.40;99.90;;;;;;5098276;28;20442;-72
2022/05/13 13:27:33;;;;;;;5.97;2.27;;;17.30;99.90;;;;;;5096489;28;20488;-72
2022/05/13 13:30:03;;;;;;;6.20;2.90;;;17.30;99.90;;;;;;5096437;28;20739;-71
2022/05/13 13:32:30;;;;;;;5.37;2.60;;;17.40;99.90;;;;;;5096352;28;20791;-71